Time;durP1;ratioP1;P1;durP2;ratioP2;P2;SDS_P1;SDS_P2;PMS_P1;PMS_P2;Temp;Humidity;BMP_temperature;BMP_pressure;BME280_temperature;BME280_humidity;BME280_pressure;Samples;Min_cycle;Max_cycle;Signal;HPM_P1;HPM_P2
2022/02/26 00:00:11;;;;;;;5.85;2.92;;;;;;;-146.05;100.00;59461.22;4992711;28;20519;-79
2022/02/26 00:02:38;;;;;;;9.82;4.28;;;;;;;-146.05;100.00;59461.22;4995591;28;20069;-79
2022/02/26 00:05:07;;;;;;;10.45;3.58;;;;;;;-146.05;100.00;59461.22;4995469;28;20058;-78
2022/02/26 00:07:37;;;;;;;10.52;4.20;;;;;;;-146.05;100.00;59461.22;4995157;28;20046;-79
2022/02/26 00:10:05;;;;;;;8.75;4.13;;;;;;;-146.05;100.00;59461.22;4995587;28;20424;-79
2022/02/26 00:12:32;;;;;;;5.95;3.65;;;;;;;-146.05;100.00;59461.22;4995366;28;20575;-78
2022/02/26 00:15:00;;;;;;;7.13;3.65;;;;;;;-146.05;100.00;59461.22;4995472;28;20057;-78
2022/02/26 00:17:28;;;;;;;6.90;3.80;;;;;;;-146.05;100.00;59461.22;4995032;28;20061;-79
2022/02/26 00:19:55;;;;;;;6.78;3.97;;;;;;;-146.05;100.00;59461.22;4995047;28;20050;-79
2022/02/26 00:22:23;;;;;;;7.70;4.43;;;;;;;-146.05;100.00;59461.22;4995066;28;20046;-79
2022/02/26 00:24:52;;;;;;;10.40;3.78;;;;;;;-146.05;100.00;59461.22;4995103;28;20054;-79
2022/02/26 00:27:20;;;;;;;9.25;4.30;;;;;;;-146.05;100.00;59461.22;4994805;28;20058;-80
2022/02/26 00:29:47;;;;;;;6.25;3.28;;;;;;;-146.05;100.00;59461.22;4995080;28;20053;-79
2022/02/26 00:32:15;;;;;;;8.75;4.05;;;;;;;-146.05;100.00;59461.22;4995673;28;20053;-79
2022/02/26 00:34:43;;;;;;;7.93;3.90;;;;;;;-146.05;100.00;59461.22;4995063;28;20054;-79
2022/02/26 00:37:10;;;;;;;5.97;3.42;;;;;;;-146.05;100.00;59461.22;4994675;28;20061;-79
2022/02/26 00:39:38;;;;;;;9.35;4.30;;;;;;;-146.05;100.00;59461.22;4993863;28;20046;-79
2022/02/26 00:42:07;;;;;;;9.35;3.58;;;;;;;-146.05;100.00;59461.22;4994934;28;20050;-79
2022/02/26 00:44:35;;;;;;;7.18;3.97;;;;;;;-146.05;100.00;59461.22;4995168;28;20062;-79
2022/02/26 00:47:03;;;;;;;5.93;3.90;;;;;;;-146.05;100.00;59461.22;4994660;28;20453;-79
2022/02/26 00:49:50;;;;;;;7.68;3.45;;;;;;;-146.05;100.00;59461.22;4994553;28;20456;-79
2022/02/26 00:52:20;;;;;;;8.57;3.55;;;;;;;-146.05;100.00;59461.22;4994585;28;20046;-79
2022/02/26 00:54:50;;;;;;;5.07;3.47;;;;;;;-146.05;100.00;59461.22;4994891;28;20557;-79
2022/02/26 00:57:19;;;;;;;10.50;3.83;;;;;;;-146.05;100.00;59461.22;4994438;28;20058;-79
2022/02/26 00:59:47;;;;;;;7.30;3.40;;;;;;;-146.05;100.00;59461.22;4978276;28;20054;-79
2022/02/26 01:02:14;;;;;;;6.18;3.45;;;;;;;-146.05;100.00;59461.22;4975231;28;20057;-79
2022/02/26 01:04:42;;;;;;;11.02;3.83;;;;;;;-146.05;100.00;59461.22;4975036;28;20102;-79
2022/02/26 01:07:10;;;;;;;6.22;3.33;;;;;;;-146.05;100.00;59461.22;4974706;28;20536;-79
2022/02/26 01:09:38;;;;;;;7.85;3.45;;;;;;;-146.05;100.00;59461.22;4975153;28;20520;-79
2022/02/26 01:12:07;;;;;;;6.95;3.50;;;;;;;-146.05;100.00;59461.22;4975241;28;20065;-79
2022/02/26 01:14:38;;;;;;;9.10;3.63;;;;;;;-146.05;100.00;59461.22;4983770;28;20070;-79
2022/02/26 01:17:07;;;;;;;6.72;3.42;;;;;;;-146.05;100.00;59461.22;4985202;28;20055;-79
2022/02/26 01:19:35;;;;;;;9.13;3.63;;;;;;;-146.05;100.00;59461.22;4976424;28;20059;-79
2022/02/26 01:22:03;;;;;;;9.23;3.30;;;;;;;-146.05;100.00;59461.22;4975200;28;20047;-79
2022/02/26 01:24:30;;;;;;;6.22;3.50;;;;;;;-146.05;100.00;59461.22;4984128;28;20054;-80
2022/02/26 01:26:59;;;;;;;6.55;3.78;;;;;;;-146.05;100.00;59461.22;4982527;28;20055;-80
2022/02/26 01:29:27;;;;;;;6.57;3.95;;;;;;;-146.05;100.00;59461.22;4975067;28;20276;-79
2022/02/26 01:31:56;;;;;;;8.32;3.33;;;;;;;-146.05;100.00;59461.22;4974908;28;20047;-78
2022/02/26 01:34:24;;;;;;;7.20;4.40;;;;;;;-146.05;100.00;59461.22;4974681;28;20047;-79
2022/02/26 01:36:51;;;;;;;8.90;4.05;;;;;;;-146.05;100.00;59461.22;4974197;28;20065;-79
2022/02/26 01:39:24;;;;;;;5.95;3.40;;;;;;;-146.05;100.00;59461.22;4974501;28;20500;-80
2022/02/26 01:41:53;;;;;;;;;;;;;;;-146.05;100.00;59461.22;4974776;28;20057;-79
2022/02/26 01:44:20;;;;;;;6.80;4.07;;;;;;;-146.05;100.00;59461.22;4974473;28;19929;-79
2022/02/26 01:46:48;;;;;;;7.95;5.35;;;;;;;-146.05;100.00;59461.22;4974125;28;20549;-79
2022/02/26 01:49:17;;;;;;;10.93;3.97;;;;;;;-146.05;100.00;59461.22;4974366;28;20049;-77
2022/02/26 01:51:46;;;;;;;10.00;4.05;;;;;;;-146.05;100.00;59461.22;4974632;28;20429;-76
2022/02/26 01:54:14;;;;;;;9.52;3.50;;;;;;;-146.05;100.00;59461.22;4974395;28;20137;-76
2022/02/26 01:56:41;;;;;;;6.07;3.15;;;;;;;-146.05;100.00;59461.22;4974105;28;20069;-76
2022/02/26 01:59:09;;;;;;;9.15;3.60;;;;;;;-146.05;100.00;59461.22;4985536;28;20456;-77
2022/02/26 02:01:37;;;;;;;10.23;4.60;;;;;;;-146.05;100.00;59461.22;4993729;28;20058;-77
2022/02/26 02:04:05;;;;;;;6.93;3.30;;;;;;;-146.05;100.00;59461.22;4993456;28;20563;-76
2022/02/26 02:06:34;;;;;;;8.38;3.67;;;;;;;-146.05;100.00;59461.22;4993191;28;20077;-77
2022/02/26 02:09:02;;;;;;;7.07;3.63;;;;;;;-146.05;100.00;59461.22;4993574;28;20047;-78
2022/02/26 02:11:30;;;;;;;5.60;3.47;;;;;;;-146.05;100.00;59461.22;4993107;28;20053;-79
2022/02/26 02:13:58;;;;;;;6.85;3.80;;;;;;;-146.05;100.00;59461.22;4993437;28;20051;-79
2022/02/26 02:16:28;;;;;;;12.40;4.20;;;;;;;-146.05;100.00;59461.22;4993236;28;20077;-77
2022/02/26 02:18:55;;;;;;;7.22;3.25;;;;;;;-146.05;100.00;59461.22;4993289;28;20054;-76
2022/02/26 02:21:23;;;;;;;8.23;3.50;;;;;;;-146.05;100.00;59461.22;4993318;28;20148;-77
2022/02/26 02:23:52;;;;;;;7.47;3.53;;;;;;;-146.05;100.00;59461.22;4993220;28;20500;-76
2022/02/26 02:26:20;;;;;;;6.68;4.28;;;;;;;-146.05;100.00;59461.22;4993160;28;20054;-77
2022/02/26 02:28:48;;;;;;;10.75;5.60;;;;;;;-146.05;100.00;59461.22;4993086;28;20046;-77
2022/02/26 02:31:18;;;;;;;7.45;3.63;;;;;;;-146.05;100.00;59461.22;4993260;28;20054;-77
2022/02/26 02:33:48;;;;;;;5.72;3.42;;;;;;;-146.05;100.00;59461.22;4993180;28;20065;-77
2022/02/26 02:36:17;;;;;;;10.98;3.75;;;;;;;-146.05;100.00;59461.22;4992632;28;20050;-76
2022/02/26 02:38:45;;;;;;;8.38;3.40;;;;;;;-146.05;100.00;59461.22;4992878;28;20077;-77
2022/02/26 02:41:14;;;;;;;6.18;3.42;;;;;;;-146.05;100.00;59461.22;4993070;28;20054;-77
2022/02/26 02:43:42;;;;;;;8.35;4.03;;;;;;;-146.05;100.00;59461.22;4992625;28;20058;-77
2022/02/26 02:46:09;;;;;;;6.18;4.00;;;;;;;-146.05;100.00;59461.22;4992730;28;20603;-76
2022/02/26 02:48:38;;;;;;;7.90;3.50;;;;;;;-146.05;100.00;59461.22;4993412;28;20050;-77
2022/02/26 02:51:06;;;;;;;8.02;3.22;;;;;;;-146.05;100.00;59461.22;4993743;28;20060;-77
2022/02/26 02:53:35;;;;;;;4.88;3.58;;;;;;;-146.05;100.00;59461.22;4993540;28;20050;-76
2022/02/26 02:56:02;;;;;;;8.38;3.40;;;;;;;-146.05;100.00;59461.22;4992741;28;20055;-77
2022/02/26 02:58:34;;;;;;;6.40;3.70;;;;;;;-146.05;100.00;59461.22;4992939;28;20055;-77
2022/02/26 03:01:02;;;;;;;5.50;4.35;;;;;;;-146.05;100.00;59461.22;4992832;28;20054;-76
2022/02/26 03:03:30;;;;;;;7.32;3.72;;;;;;;-146.05;100.00;59461.22;4996538;28;20050;-76
2022/02/26 03:05:58;;;;;;;14.07;4.00;;;;;;;-146.05;100.00;59461.22;4996905;28;20081;-76
2022/02/26 03:08:27;;;;;;;7.38;3.92;;;;;;;-146.05;100.00;59461.22;4996858;28;20054;-77
2022/02/26 03:10:57;;;;;;;9.05;4.80;;;;;;;-146.05;100.00;59461.22;4996934;28;20050;-76
2022/02/26 03:13:26;;;;;;;6.22;3.92;;;;;;;-146.05;100.00;59461.22;4997409;28;20065;-77
2022/02/26 03:15:57;;;;;;;6.43;3.72;;;;;;;-146.05;100.00;59461.22;4996796;28;20528;-77
2022/02/26 03:18:26;;;;;;;7.30;3.65;;;;;;;-146.05;100.00;59461.22;4997174;28;20042;-77
2022/02/26 03:20:53;;;;;;;7.10;3.72;;;;;;;-146.05;100.00;59461.22;4997016;28;20077;-77
2022/02/26 03:23:21;;;;;;;7.38;3.85;;;;;;;-146.05;100.00;59461.22;4996566;28;20050;-77
2022/02/26 03:25:49;;;;;;;5.30;3.70;;;;;;;-146.05;100.00;59461.22;4996355;28;20493;-76
2022/02/26 03:28:16;;;;;;;7.28;3.97;;;;;;;-146.05;100.00;59461.22;4996376;28;20085;-77
2022/02/26 03:30:44;;;;;;;8.13;4.10;;;;;;;-146.05;100.00;59461.22;4996709;28;20054;-76
2022/02/26 03:33:13;;;;;;;9.93;4.38;;;;;;;-146.05;100.00;59461.22;4996737;28;20104;-77
2022/02/26 03:35:40;;;;;;;6.93;3.85;;;;;;;-146.05;100.00;59461.22;4996586;28;20058;-76
2022/02/26 03:38:08;;;;;;;8.50;3.55;;;;;;;-146.05;100.00;59461.22;4996109;28;20050;-76
2022/02/26 03:40:36;;;;;;;5.47;4.07;;;;;;;-146.05;100.00;59461.22;4996641;28;20073;-77
2022/02/26 03:43:04;;;;;;;12.07;4.30;;;;;;;-146.05;100.00;59461.22;4996137;28;20046;-77
2022/02/26 03:45:31;;;;;;;8.52;4.63;;;;;;;-146.05;100.00;59461.22;4996241;28;20049;-77
2022/02/26 03:48:00;;;;;;;9.90;4.07;;;;;;;-146.05;100.00;59461.22;4996060;28;20058;-77
2022/02/26 03:50:29;;;;;;;7.47;4.03;;;;;;;-146.05;100.00;59461.22;4996238;28;20057;-76
2022/02/26 03:52:57;;;;;;;8.50;4.43;;;;;;;-146.05;100.00;59461.22;4996221;28;20497;-76
2022/02/26 03:55:24;;;;;;;6.60;3.80;;;;;;;-146.05;100.00;59461.22;4995983;28;20460;-77
2022/02/26 03:57:52;;;;;;;10.25;4.78;;;;;;;-146.05;100.00;59461.22;4996065;28;20061;-76
2022/02/26 04:00:20;;;;;;;6.65;3.78;;;;;;;-146.05;100.00;59461.22;4998111;28;20501;-76
2022/02/26 04:02:47;;;;;;;7.47;4.50;;;;;;;-146.05;100.00;59461.22;5016054;28;20042;-76
2022/02/26 04:05:15;;;;;;;8.95;4.72;;;;;;;-146.05;100.00;59461.22;5016143;28;20053;-76
2022/02/26 04:07:45;;;;;;;11.57;4.22;;;;;;;-146.05;100.00;59461.22;5001366;28;20101;-76
2022/02/26 04:10:13;;;;;;;7.07;4.25;;;;;;;-146.05;100.00;59461.22;4996800;28;20057;-77
2022/02/26 04:12:41;;;;;;;7.70;4.47;;;;;;;-146.05;100.00;59461.22;4998730;28;20445;-77
2022/02/26 04:15:09;;;;;;;7.57;4.75;;;;;;;-146.05;100.00;59461.22;5012022;28;20065;-77
2022/02/26 04:17:37;;;;;;;10.45;4.65;;;;;;;-146.05;100.00;59461.22;5000271;28;20054;-77
2022/02/26 04:20:06;;;;;;;9.20;5.03;;;;;;;-146.05;100.00;59461.22;4995859;28;20050;-76
2022/02/26 04:22:34;;;;;;;8.80;5.15;;;;;;;-146.05;100.00;59461.22;4995337;28;20055;-77
2022/02/26 04:25:03;;;;;;;9.05;4.65;;;;;;;-146.05;100.00;59461.22;4995372;28;20046;-76
2022/02/26 04:27:30;;;;;;;10.43;4.90;;;;;;;-146.05;100.00;59461.22;4995069;28;20105;-76
2022/02/26 04:29:58;;;;;;;11.13;4.85;;;;;;;-146.05;100.00;59461.22;4995664;28;20134;-77
2022/02/26 04:32:42;;;;;;;11.98;5.57;;;;;;;-146.05;100.00;59461.22;4995192;28;20046;-77
2022/02/26 04:35:11;;;;;;;13.05;4.50;;;;;;;-146.05;100.00;59461.22;4995218;28;20054;-76
2022/02/26 04:37:39;;;;;;;12.77;4.55;;;;;;;-146.05;100.00;59461.22;4994903;28;20631;-77
2022/02/26 04:40:09;;;;;;;9.05;4.85;;;;;;;-146.05;100.00;59461.22;4995184;28;20046;-77
2022/02/26 04:42:37;;;;;;;7.68;4.63;;;;;;;-146.05;100.00;59461.22;4995133;28;20058;-77
2022/02/26 04:45:06;;;;;;;9.77;4.90;;;;;;;-146.05;100.00;59461.22;4994925;28;20082;-77
2022/02/26 04:47:33;;;;;;;10.07;5.15;;;;;;;-146.05;100.00;59461.22;4994707;28;20077;-76
2022/02/26 04:50:01;;;;;;;10.18;5.22;;;;;;;-146.05;100.00;59461.22;4994949;28;20055;-76
2022/02/26 04:52:28;;;;;;;10.55;4.85;;;;;;;-146.05;100.00;59461.22;4994961;28;20137;-77
2022/02/26 04:54:57;;;;;;;9.48;5.10;;;;;;;-146.05;100.00;59461.22;4994871;28;20516;-76
2022/02/26 04:57:26;;;;;;;8.13;5.10;;;;;;;-146.05;100.00;59461.22;4994587;28;20456;-77
2022/02/26 04:59:54;;;;;;;9.65;5.43;;;;;;;-146.05;100.00;59461.22;4994673;28;20064;-76
2022/02/26 05:02:22;;;;;;;10.02;5.35;;;;;;;-146.05;100.00;59461.22;4995011;28;20042;-77
2022/02/26 05:04:49;;;;;;;8.55;5.20;;;;;;;-146.05;100.00;59461.22;4994416;28;20054;-77
2022/02/26 05:07:19;;;;;;;11.15;5.55;;;;;;;-146.05;100.00;59461.22;4994298;28;20505;-76
2022/02/26 05:09:47;;;;;;;13.43;6.45;;;;;;;-146.05;100.00;59461.22;4995006;28;20062;-77
2022/02/26 05:12:14;;;;;;;9.98;6.22;;;;;;;-146.05;100.00;59461.22;4994450;28;20050;-75
2022/02/26 05:14:43;;;;;;;10.35;5.55;;;;;;;-146.05;100.00;59461.22;4994507;28;20046;-76
2022/02/26 05:17:11;;;;;;;11.68;5.97;;;;;;;-146.05;100.00;59461.22;4994283;28;20428;-76
2022/02/26 05:19:38;;;;;;;9.05;5.20;;;;;;;-146.05;100.00;59461.22;4994498;28;20061;-77
2022/02/26 05:22:06;;;;;;;12.15;5.72;;;;;;;-146.05;100.00;59461.22;4994734;28;20046;-76
2022/02/26 05:24:33;;;;;;;9.20;5.20;;;;;;;-146.05;100.00;59461.22;4994401;28;20050;-76
2022/02/26 05:27:01;;;;;;;10.32;5.45;;;;;;;-146.05;100.00;59461.22;4993890;28;20054;-76
2022/02/26 05:29:29;;;;;;;13.40;5.10;;;;;;;-146.05;100.00;59461.22;4994446;28;20046;-76
2022/02/26 05:31:58;;;;;;;12.52;6.03;;;;;;;-146.05;100.00;59461.22;4994570;28;20057;-77
2022/02/26 05:34:26;;;;;;;9.52;5.22;;;;;;;-146.05;100.00;59461.22;4994127;28;20047;-76
2022/02/26 05:36:54;;;;;;;11.48;5.55;;;;;;;-146.05;100.00;59461.22;4994040;28;20047;-76
2022/02/26 05:39:21;;;;;;;11.55;5.68;;;;;;;-146.05;100.00;59461.22;4993744;28;20050;-76
2022/02/26 05:41:49;;;;;;;8.80;5.40;;;;;;;-146.05;100.00;59461.22;4993849;28;20130;-76
2022/02/26 05:44:16;;;;;;;10.57;5.60;;;;;;;-146.05;100.00;59461.22;4994023;28;20053;-76
2022/02/26 05:46:44;;;;;;;10.05;6.32;;;;;;;-146.05;100.00;59461.22;4993785;28;20134;-77
2022/02/26 05:49:13;;;;;;;10.68;6.28;;;;;;;-146.05;100.00;59461.22;4995143;28;20046;-76
2022/02/26 05:51:41;;;;;;;11.10;6.20;;;;;;;-146.05;100.00;59461.22;4995735;28;20054;-77
2022/02/26 05:54:08;;;;;;;15.73;6.60;;;;;;;-146.05;100.00;59461.22;4994536;28;20054;-79
2022/02/26 05:56:36;;;;;;;9.60;6.25;;;;;;;-146.05;100.00;59461.22;4993515;28;20058;-78
2022/02/26 05:59:11;;;;;;;10.90;5.70;;;;;;;-146.05;100.00;59461.22;5069455;23;20056;-86
2022/02/26 06:01:49;;;;;;;9.63;5.43;;;;;;;-146.05;100.00;59461.22;5075176;28;20141;-84
2022/02/26 06:04:29;;;;;;;9.55;5.65;;;;;;;-146.05;100.00;59461.22;5074676;28;20049;-89
2022/02/26 06:07:05;;;;;;;10.52;5.15;;;;;;;-146.05;100.00;59461.22;5074984;28;20037;-86
2022/02/26 06:09:39;;;;;;;9.52;5.35;;;;;;;-146.05;100.00;59461.22;5087644;28;20052;-87
2022/02/26 06:12:18;;;;;;;9.98;5.63;;;;;;;-146.05;100.00;59461.22;5094440;28;20048;-85
2022/02/26 06:14:52;;;;;;;11.20;6.15;;;;;;;-146.05;100.00;59461.22;5094780;28;20426;-86
2022/02/26 06:17:25;;;;;;;13.75;6.63;;;;;;;-146.05;100.00;59461.22;5094285;28;20068;-85
2022/02/26 06:20:03;;;;;;;12.02;6.88;;;;;;;-146.05;100.00;59461.22;5094722;28;20510;-85
2022/02/26 06:22:56;;;;;;;12.63;6.20;;;;;;;-146.05;100.00;59461.22;5095571;28;20063;-88
2022/02/26 06:25:31;;;;;;;10.05;6.35;;;;;;;-146.05;100.00;59461.22;5097951;28;20036;-88
2022/02/26 06:28:12;;;;;;;11.95;6.10;;;;;;;-146.05;100.00;59461.22;5097693;28;20040;-89
2022/02/26 06:30:57;;;;;;;12.18;6.88;;;;;;;-146.05;100.00;59461.22;5097903;28;20038;-90
2022/02/26 06:33:39;;;;;;;12.27;6.80;;;;;;;-146.05;100.00;59461.22;5097924;28;20045;-85
2022/02/26 06:36:17;;;;;;;12.70;6.65;;;;;;;-146.05;100.00;59461.22;5096949;28;20032;-85
2022/02/26 06:38:59;;;;;;;12.77;6.80;;;;;;;-146.05;100.00;59461.22;5097693;28;20115;-86
2022/02/26 06:41:35;;;;;;;11.07;6.88;;;;;;;-146.05;100.00;59461.22;5097508;28;20033;-86
2022/02/26 06:44:22;;;;;;;10.60;5.90;;;;;;;-146.05;100.00;59461.22;5097096;28;20032;-86
2022/02/26 06:47:04;;;;;;;11.43;6.07;;;;;;;-146.05;100.00;59461.22;5096780;28;20036;-85
2022/02/26 06:49:38;;;;;;;10.90;6.40;;;;;;;-146.05;100.00;59461.22;5126728;23;20045;-85
2022/02/26 06:52:19;;;;;;;10.85;6.80;;;;;;;-146.05;100.00;59461.22;5076070;28;20036;-85
2022/02/26 06:57:51;;;;;;;10.80;6.32;;;;;;;-146.05;100.00;59461.22;5074269;28;20075;-85
2022/02/26 07:00:24;;;;;;;10.65;6.18;;;;;;;-146.05;100.00;59461.22;5073888;28;20083;-84
2022/02/26 07:13:52;;;;;;;13.45;6.75;;;;;;;-146.05;100.00;59461.22;5058967;23;20057;-85
2022/02/26 07:16:29;;;;;;;14.43;7.95;;;;;;;-146.05;100.00;59461.22;5053154;28;20054;-86
2022/02/26 07:19:13;;;;;;;14.32;7.95;;;;;;;-146.05;100.00;59461.22;5053743;28;20506;-84
2022/02/26 07:21:51;;;;;;;16.88;7.53;;;;;;;-146.05;100.00;59461.22;5059390;28;20057;-84
2022/02/26 07:24:39;;;;;;;12.10;6.82;;;;;;;-146.05;100.00;59461.22;5075085;28;20060;-88
2022/02/26 07:27:24;;;;;;;9.23;7.03;;;;;;;-146.05;100.00;59461.22;5077182;28;20044;-92
2022/02/26 07:30:08;;;;;;;12.15;6.85;;;;;;;-146.05;100.00;59461.22;5077454;28;20063;-89
2022/02/26 07:32:45;;;;;;;14.82;7.53;;;;;;;-146.05;100.00;59461.22;5077082;28;20120;-91
2022/02/26 07:35:19;;;;;;;13.63;7.38;;;;;;;-146.05;100.00;59461.22;5077389;28;20041;-91
2022/02/26 07:40:42;;;;;;;16.50;7.43;;;;;;;-146.05;100.00;59461.22;5075568;28;20045;-91
2022/02/26 07:43:29;;;;;;;14.77;6.60;;;;;;;-146.05;100.00;59461.22;5076846;28;20048;-90
2022/02/26 07:46:08;;;;;;;;;;;;;;;-146.05;100.00;59461.22;5077376;28;20037;-89
2022/02/26 07:48:49;;;;;;;11.85;6.43;;;;;;;-146.05;100.00;59461.22;5079434;28;19927;-90
2022/02/26 07:51:40;;;;;;;9.68;6.10;;;;;;;-146.05;100.00;59461.22;5080804;28;20112;-89
2022/02/26 07:54:17;;;;;;;10.55;5.50;;;;;;;-146.05;100.00;59461.22;5080721;28;20048;-90
2022/02/26 07:59:54;;;;;;;12.45;6.80;;;;;;;-146.05;100.00;59461.22;5077041;28;20041;-87
2022/02/26 08:02:31;;;;;;;12.45;6.55;;;;;;;-146.05;100.00;59461.22;5080093;28;20048;-89
2022/02/26 08:05:15;;;;;;;11.27;6.50;;;;;;;-146.05;100.00;59461.22;5080166;28;20043;-88
2022/02/26 08:07:57;;;;;;;10.10;6.10;;;;;;;-146.05;100.00;59461.22;5079899;28;20064;-86
2022/02/26 08:10:37;;;;;;;10.13;5.90;;;;;;;-146.05;100.00;59461.22;5079796;28;20056;-84
2022/02/26 08:13:18;;;;;;;9.32;5.70;;;;;;;-146.05;100.00;59461.22;5078718;28;20057;-85
2022/02/26 08:15:51;;;;;;;;;;;;;;;-146.05;100.00;59461.22;5079159;28;20053;-88
2022/02/26 08:18:37;;;;;;;9.00;4.70;;;;;;;-146.05;100.00;59461.22;5078644;28;19923;-86
2022/02/26 08:24:14;;;;;;;9.23;5.13;;;;;;;-146.05;100.00;59461.22;5075519;28;20049;-85
2022/02/26 08:26:50;;;;;;;13.32;4.70;;;;;;;-146.05;100.00;59461.22;5076351;28;20043;-85
2022/02/26 08:29:24;;;;;;;10.55;5.25;;;;;;;-146.05;100.00;59461.22;5076085;28;20049;-86
2022/02/26 08:32:02;;;;;;;13.55;4.85;;;;;;;-146.05;100.00;59461.22;5076156;28;20064;-84
2022/02/26 08:35:04;;;;;;;9.57;4.63;;;;;;;-146.05;100.00;59461.22;5075306;28;20052;-85
2022/02/26 08:37:49;;;;;;;9.45;4.03;;;;;;;-146.05;100.00;59461.22;5075074;28;20541;-84
2022/02/26 08:40:28;;;;;;;16.98;5.35;;;;;;;-146.05;100.00;59461.22;5075075;28;20060;-84
2022/02/26 08:43:02;;;;;;;13.20;5.15;;;;;;;-146.05;100.00;59461.22;5087012;22;20080;-84
2022/02/26 08:45:43;;;;;;;9.85;4.60;;;;;;;-146.05;100.00;59461.22;5054690;28;20053;-84
2022/02/26 08:48:20;;;;;;;9.70;4.50;;;;;;;-146.05;100.00;59461.22;5054397;28;20056;-86
2022/02/26 08:51:06;;;;;;;7.32;4.40;;;;;;;-146.05;100.00;59461.22;5053463;28;20474;-83
2022/02/26 08:53:52;;;;;;;10.40;4.63;;;;;;;-146.05;100.00;59461.22;5033416;28;20512;-84
2022/02/26 09:30:20;;;;;;;10.05;4.18;;;;;;;-146.05;100.00;59461.22;5030277;28;20066;-84
2022/02/26 09:32:59;;;;;;;7.95;2.90;;;;;;;-146.05;100.00;59461.22;5031436;28;20341;-84
2022/02/26 13:33:03;;;;;;;7.00;1.97;;;;;;;-146.05;100.00;59461.22;5035541;28;20030;-86
2022/02/26 13:35:44;;;;;;;2.70;1.10;;;;;;;-146.05;100.00;59461.22;5037001;28;20061;-84
2022/02/26 13:38:24;;;;;;;4.57;1.60;;;;;;;-146.05;100.00;59461.22;5037096;28;20038;-86
2022/02/26 13:41:10;;;;;;;6.40;1.52;;;;;;;-146.05;100.00;59461.22;5036839;28;20053;-85
2022/02/26 13:43:40;;;;;;;9.57;2.42;;;;;;;-146.05;100.00;59461.22;5038425;28;20034;-87
2022/02/26 13:57:18;;;;;;;6.63;1.80;;;;;;;-146.05;100.00;59461.22;5105379;23;20041;-89
2022/02/26 14:00:03;;;;;;;7.22;1.63;;;;;;;-146.05;100.00;59461.22;5038041;28;20049;-89
2022/02/26 14:02:46;;;;;;;7.80;1.98;;;;;;;-146.05;100.00;59461.22;5038043;28;20101;-87
2022/02/26 14:05:38;;;;;;;6.38;1.35;;;;;;;-146.05;100.00;59461.22;5037633;28;20084;-87
2022/02/26 14:08:24;;;;;;;4.88;1.35;;;;;;;-146.05;100.00;59461.22;5037205;28;20049;-86
2022/02/26 14:11:01;;;;;;;4.38;1.85;;;;;;;-146.05;100.00;59461.22;5037250;28;20128;-85
2022/02/26 14:16:41;;;;;;;4.97;1.27;;;;;;;-146.05;100.00;59461.22;5038047;28;20068;-88
2022/02/26 14:19:32;;;;;;;4.20;1.58;;;;;;;-146.05;100.00;59461.22;5038258;28;20061;-89
2022/02/26 14:25:22;;;;;;;6.00;1.65;;;;;;;-146.05;100.00;59461.22;5034469;28;20050;-88
2022/02/26 14:28:03;;;;;;;4.68;1.60;;;;;;;-146.05;100.00;59461.22;5037789;28;20046;-89
2022/02/26 14:33:48;;;;;;;6.63;1.30;;;;;;;-146.05;100.00;59461.22;5035547;28;20034;-89
2022/02/26 14:36:22;;;;;;;4.53;0.93;;;;;;;-146.05;100.00;59461.22;5037829;28;20042;-89
2022/02/26 14:38:58;;;;;;;6.50;1.17;;;;;;;-146.05;100.00;59461.22;5037884;28;20033;-88
2022/02/26 14:41:34;;;;;;;6.10;1.98;;;;;;;-146.05;100.00;59461.22;5038107;28;20054;-89
2022/02/26 14:44:12;;;;;;;3.88;1.38;;;;;;;-146.05;100.00;59461.22;5037849;28;20050;-90
2022/02/26 14:46:54;;;;;;;4.00;1.35;;;;;;;-146.05;100.00;59461.22;5037458;28;20038;-88
2022/02/26 14:49:34;;;;;;;5.45;1.25;;;;;;;-146.05;100.00;59461.22;5037744;28;20034;-87
2022/02/26 14:52:22;;;;;;;5.55;1.17;;;;;;;-146.05;100.00;59461.22;5037296;28;20038;-87
2022/02/26 14:55:04;;;;;;;4.30;1.20;;;;;;;-146.05;100.00;59461.22;5037367;28;20267;-87
2022/02/26 14:57:38;;;;;;;3.50;1.05;;;;;;;-146.05;100.00;59461.22;5036590;28;20054;-86
2022/02/26 15:00:12;;;;;;;3.00;1.13;;;;;;;-146.05;100.00;59461.22;5037004;28;20049;-84
2022/02/26 15:02:54;;;;;;;8.65;1.50;;;;;;;-146.05;100.00;59461.22;5037154;28;20542;-86
2022/02/26 15:05:46;;;;;;;6.72;1.58;;;;;;;-146.05;100.00;59461.22;5036603;28;20034;-88
2022/02/26 15:08:21;;;;;;;4.50;1.70;;;;;;;-146.05;100.00;59461.22;5036948;28;20038;-89
2022/02/26 15:11:11;;;;;;;4.30;1.30;;;;;;;-146.05;100.00;59461.22;5037506;28;20045;-90
2022/02/26 15:13:48;;;;;;;4.15;1.40;;;;;;;-146.05;100.00;59461.22;5037465;28;20037;-90
2022/02/26 15:16:27;;;;;;;4.28;0.82;;;;;;;-146.05;100.00;59461.22;5037108;28;20073;-89
2022/02/26 15:19:31;;;;;;;7.50;1.30;;;;;;;-146.05;100.00;59461.22;5037589;28;20050;-89
2022/02/26 15:22:13;;;;;;;2.55;1.00;;;;;;;-146.05;100.00;59461.22;5037531;28;20098;-90
2022/02/26 15:24:54;;;;;;;4.88;1.08;;;;;;;-146.05;100.00;59461.22;5037453;28;20072;-91
2022/02/26 15:27:41;;;;;;;4.72;1.67;;;;;;;-146.05;100.00;59461.22;5037159;28;20050;-89
2022/02/26 15:30:26;;;;;;;3.97;1.52;;;;;;;-146.05;100.00;59461.22;5037449;28;20049;-88
2022/02/26 15:33:09;;;;;;;6.20;1.35;;;;;;;-146.05;100.00;59461.22;5037356;28;20033;-86
2022/02/26 15:36:05;;;;;;;7.47;1.50;;;;;;;-146.05;100.00;59461.22;5036354;28;20037;-88
2022/02/26 15:39:05;;;;;;;4.60;1.27;;;;;;;-146.05;100.00;59461.22;5036286;28;20061;-87
2022/02/26 15:42:00;;;;;;;6.22;1.75;;;;;;;-146.05;100.00;59461.22;5036119;28;20048;-85
2022/02/26 15:44:50;;;;;;;3.10;1.25;;;;;;;-146.05;100.00;59461.22;5035631;28;20652;-88
2022/02/26 15:47:32;;;;;;;4.38;1.33;;;;;;;-146.05;100.00;59461.22;5035494;28;20050;-86
2022/02/26 15:55:47;;;;;;;7.18;1.65;;;;;;;-146.05;100.00;59461.22;5036403;28;20039;-87
2022/02/26 16:03:59;;;;;;;3.70;1.40;;;;;;;-146.05;100.00;59461.22;5052538;28;20116;-85
2022/02/26 16:06:44;;;;;;;3.40;1.70;;;;;;;-146.05;100.00;59461.22;5053298;28;20049;-85
2022/02/26 16:09:25;;;;;;;5.68;1.50;;;;;;;-146.05;100.00;59461.22;5054643;28;20045;-85
2022/02/26 16:12:01;;;;;;;20.00;2.35;;;;;;;-146.05;100.00;59461.22;5056008;28;20084;-85
2022/02/26 16:14:36;;;;;;;5.60;1.40;;;;;;;-146.05;100.00;59461.22;5056560;28;20057;-87
2022/02/26 16:17:22;;;;;;;8.60;2.70;;;;;;;-146.05;100.00;59461.22;5056042;28;20038;-86
2022/02/26 16:22:58;;;;;;;6.43;2.42;;;;;;;-146.05;100.00;59461.22;5055313;28;20538;-84
2022/02/26 16:25:35;;;;;;;;;;;;;;;-146.05;100.00;59461.22;5055786;28;20037;-84
2022/02/26 16:28:27;;;;;;;5.43;1.30;;;;;;;-146.05;100.00;59461.22;5054544;28;19921;-85
2022/02/26 16:31:16;;;;;;;5.43;1.20;;;;;;;-146.05;100.00;59461.22;5055109;28;20057;-84
2022/02/26 16:33:51;;;;;;;5.35;1.73;;;;;;;-146.05;100.00;59461.22;5054465;28;20049;-85
2022/02/26 16:36:33;;;;;;;3.83;1.17;;;;;;;-146.05;100.00;59461.22;5054445;28;20053;-83
2022/02/26 16:39:08;;;;;;;3.80;1.35;;;;;;;-146.05;100.00;59461.22;5054457;28;20046;-85
2022/02/26 16:41:55;;;;;;;7.78;1.70;;;;;;;-146.05;100.00;59461.22;5054161;28;20043;-87
2022/02/26 16:47:43;;;;;;;;;;;;;;;-146.05;100.00;59461.22;5054500;28;20434;-84
2022/02/26 16:50:35;;;;;;;2.80;1.75;;;;;;;-146.05;100.00;59461.22;5053663;28;19905;-84
2022/02/26 16:53:20;;;;;;;3.38;1.50;;;;;;;-146.05;100.00;59461.22;5053835;28;20057;-87
2022/02/26 16:55:52;;;;;;;4.32;1.70;;;;;;;-146.05;100.00;59461.22;5053272;28;20050;-88
2022/02/26 16:58:35;;;;;;;8.63;2.33;;;;;;;-146.05;100.00;59461.22;5054002;28;20403;-85
2022/02/26 17:01:28;;;;;;;6.82;1.67;;;;;;;-146.05;100.00;59461.22;5053298;28;20491;-84
2022/02/26 17:09:47;;;;;;;11.65;5.10;;;;;;;-146.05;100.00;59461.22;5052151;28;20057;-86
2022/02/26 17:12:35;;;;;;;7.65;4.78;;;;;;;-146.05;100.00;59461.22;5052657;28;20065;-83
2022/02/26 17:15:14;;;;;;;8.13;2.67;;;;;;;-146.05;100.00;59461.22;5052387;28;20053;-86